FHY9031 LTFD-OEJN
Flight info
| Callsign | FHY9031 |
|---|---|
| Flight time | 3h 0m |
| Altitude | 33000 |
| Route | DUGLA UN131 KULAR UT39 TOMBI DCT APLON L550 DATOK J981 NOVPA R650 SHM DCT PASUM L677 WEJ J852 KULKI T510 RBG B544 NOMDA |
| Aircraft | A320/M-SDE3FGHIRWY/LB1 |
Departure
| Time | 2026-05-09 08:49 |
|---|---|
| Airport | Balıkesir Koca Seyit Airport (LTFD) |
Arrival
| Time | 2026-05-09 11:49 |
|---|---|
| Airport | King Abdulaziz International Airport (OEJN) |
| Time | Latitude | Longitude | Altitude | Speed | Heading |
|---|---|---|---|---|---|
| 2026-05-09 08:44 | 39.55067 | 27.01036 | 48 ft | 9 kts | 325° |
| 2026-05-09 08:44 | 39.55129 | 27.00978 | 48 ft | 15 kts | 323° |
| 2026-05-09 08:44 | 39.55214 | 27.00978 | 46 ft | 12 kts | 49° |
| 2026-05-09 08:45 | 39.55264 | 27.01064 | 53 ft | 15 kts | 53° |
| 2026-05-09 08:45 | 39.55328 | 27.01179 | 53 ft | 15 kts | 53° |
| 2026-05-09 08:45 | 39.55383 | 27.01275 | 55 ft | 13 kts | 53° |
| 2026-05-09 08:45 | 39.55449 | 27.01391 | 55 ft | 18 kts | 53° |
| 2026-05-09 08:46 | 39.55524 | 27.01523 | 52 ft | 19 kts | 53° |
| 2026-05-09 08:46 | 39.55615 | 27.01683 | 51 ft | 23 kts | 54° |
| 2026-05-09 08:46 | 39.55712 | 27.01854 | 52 ft | 23 kts | 53° |
| 2026-05-09 08:46 | 39.55806 | 27.02020 | 54 ft | 23 kts | 53° |
| 2026-05-09 08:47 | 39.55895 | 27.02173 | 55 ft | 19 kts | 53° |
| 2026-05-09 08:47 | 39.55971 | 27.02302 | 56 ft | 17 kts | 38° |
| 2026-05-09 08:47 | 39.56053 | 27.02357 | 57 ft | 11 kts | 58° |
| 2026-05-09 08:47 | 39.56017 | 27.02385 | 57 ft | 6 kts | 212° |
| 2026-05-09 08:48 | 39.55999 | 27.02358 | 56 ft | 0 kts | 234° |
| 2026-05-09 08:48 | 39.55956 | 27.02283 | 59 ft | 40 kts | 233° |
| 2026-05-09 08:48 | 39.55625 | 27.01697 | 51 ft | 119 kts | 233° |
| 2026-05-09 08:48 | 39.55028 | 27.00612 | 107 ft | 170 kts | 234° |
| 2026-05-09 08:49 | 39.54334 | 26.99330 | 749 ft | 179 kts | 235° |
| 2026-05-09 08:49 | 39.53585 | 26.98009 | 1453 ft | 190 kts | 233° |
| 2026-05-09 08:49 | 39.52764 | 26.96581 | 2123 ft | 205 kts | 233° |
| 2026-05-09 08:49 | 39.51879 | 26.95043 | 2763 ft | 222 kts | 232° |
| 2026-05-09 08:50 | 39.50944 | 26.93413 | 3425 ft | 226 kts | 232° |
| 2026-05-09 08:50 | 39.50003 | 26.91765 | 4208 ft | 228 kts | 233° |
| 2026-05-09 08:50 | 39.49055 | 26.90103 | 4967 ft | 231 kts | 233° |
| 2026-05-09 08:50 | 39.48095 | 26.88417 | 5783 ft | 235 kts | 234° |
| 2026-05-09 08:51 | 39.47123 | 26.86707 | 6686 ft | 237 kts | 235° |
| 2026-05-09 08:51 | 39.46141 | 26.84975 | 7466 ft | 240 kts | 235° |
| 2026-05-09 08:51 | 39.45143 | 26.83224 | 8219 ft | 243 kts | 233° |
| 2026-05-09 08:51 | 39.43814 | 26.81860 | 8912 ft | 254 kts | 202° |
| 2026-05-09 08:52 | 39.42023 | 26.81734 | 9601 ft | 269 kts | 169° |
| 2026-05-09 08:52 | 39.40291 | 26.82759 | 10264 ft | 280 kts | 151° |
| 2026-05-09 08:52 | 39.38705 | 26.84274 | 10913 ft | 286 kts | 144° |
| 2026-05-09 08:52 | 39.37187 | 26.85981 | 11527 ft | 293 kts | 137° |
| 2026-05-09 08:53 | 39.36131 | 26.88279 | 12136 ft | 305 kts | 107° |
| 2026-05-09 08:53 | 39.35926 | 26.91020 | 12776 ft | 311 kts | 81° |
| 2026-05-09 08:53 | 39.36628 | 26.93636 | 13433 ft | 309 kts | 54° |
| 2026-05-09 08:53 | 39.37867 | 26.95911 | 14124 ft | 311 kts | 50° |
| 2026-05-09 08:54 | 39.39147 | 26.98175 | 14801 ft | 313 kts | 50° |
| 2026-05-09 08:54 | 39.40444 | 27.00451 | 15463 ft | 315 kts | 50° |
| 2026-05-09 08:54 | 39.41753 | 27.02749 | 16106 ft | 318 kts | 50° |
| 2026-05-09 08:54 | 39.43071 | 27.05064 | 16752 ft | 321 kts | 50° |
| 2026-05-09 08:55 | 39.44394 | 27.07409 | 17386 ft | 324 kts | 53° |
| 2026-05-09 08:55 | 39.45527 | 27.09949 | 18000 ft | 329 kts | 63° |
| 2026-05-09 08:55 | 39.46471 | 27.12680 | 18456 ft | 341 kts | 65° |
| 2026-05-09 08:55 | 39.47227 | 27.15695 | 18559 ft | 363 kts | 76° |
| 2026-05-09 08:56 | 39.47563 | 27.19017 | 18645 ft | 383 kts | 88° |
| 2026-05-09 08:56 | 39.47388 | 27.22532 | 18766 ft | 401 kts | 101° |
| 2026-05-09 08:56 | 39.46638 | 27.26078 | 18893 ft | 416 kts | 113° |
| 2026-05-09 08:56 | 39.45300 | 27.29444 | 19052 ft | 426 kts | 126° |
| 2026-05-09 08:57 | 39.43471 | 27.32491 | 19428 ft | 431 kts | 132° |
| 2026-05-09 08:57 | 39.41557 | 27.35495 | 19872 ft | 435 kts | 132° |
| 2026-05-09 08:57 | 39.39648 | 27.38487 | 20313 ft | 438 kts | 132° |
| 2026-05-09 08:57 | 39.37697 | 27.41536 | 20706 ft | 441 kts | 132° |
| 2026-05-09 08:58 | 39.35728 | 27.44603 | 21086 ft | 445 kts | 132° |
| 2026-05-09 08:58 | 39.33743 | 27.47696 | 21492 ft | 448 kts | 132° |
| 2026-05-09 08:58 | 39.31739 | 27.50816 | 21829 ft | 453 kts | 132° |
| 2026-05-09 08:58 | 39.29716 | 27.53961 | 22188 ft | 457 kts | 132° |
| 2026-05-09 08:59 | 39.27681 | 27.57126 | 22553 ft | 460 kts | 132° |
| 2026-05-09 08:59 | 39.25632 | 27.60312 | 22922 ft | 463 kts | 132° |
| 2026-05-09 08:59 | 39.23566 | 27.63520 | 23272 ft | 466 kts | 133° |
| 2026-05-09 08:59 | 39.21487 | 27.66747 | 23605 ft | 469 kts | 133° |
| 2026-05-09 09:00 | 39.19394 | 27.69988 | 23893 ft | 472 kts | 133° |
| 2026-05-09 09:00 | 39.17999 | 27.72142 | 24092 ft | 473 kts | 133° |
| 2026-05-09 09:00 | 39.15168 | 27.76510 | 24496 ft | 476 kts | 133° |
| 2026-05-09 09:00 | 39.13768 | 27.78672 | 24684 ft | 477 kts | 133° |
| 2026-05-09 09:01 | 39.11637 | 27.81960 | 24948 ft | 479 kts | 133° |
| 2026-05-09 09:01 | 39.09493 | 27.85264 | 25234 ft | 481 kts | 133° |
| 2026-05-09 09:01 | 39.07344 | 27.88575 | 25518 ft | 482 kts | 133° |
| 2026-05-09 09:01 | 39.05192 | 27.91892 | 25793 ft | 484 kts | 133° |
| 2026-05-09 09:02 | 39.03031 | 27.95222 | 26061 ft | 485 kts | 133° |
| 2026-05-09 09:02 | 39.00860 | 27.98555 | 26352 ft | 487 kts | 133° |
| 2026-05-09 09:02 | 38.98680 | 28.01895 | 26632 ft | 488 kts | 133° |
| 2026-05-09 09:02 | 38.96490 | 28.05246 | 26880 ft | 489 kts | 133° |
| 2026-05-09 09:03 | 38.94298 | 28.08597 | 27103 ft | 491 kts | 133° |
| 2026-05-09 09:03 | 38.92093 | 28.11965 | 27309 ft | 493 kts | 133° |
| 2026-05-09 09:03 | 38.89876 | 28.15344 | 27531 ft | 495 kts | 133° |
| 2026-05-09 09:03 | 38.87659 | 28.18725 | 27749 ft | 496 kts | 133° |
| 2026-05-09 09:04 | 38.85423 | 28.22129 | 27956 ft | 498 kts | 133° |
| 2026-05-09 09:04 | 38.83190 | 28.25529 | 28168 ft | 499 kts | 133° |
| 2026-05-09 09:04 | 38.80950 | 28.28933 | 28380 ft | 500 kts | 133° |
| 2026-05-09 09:04 | 38.78703 | 28.32346 | 28569 ft | 501 kts | 133° |
| 2026-05-09 09:05 | 38.76452 | 28.35765 | 28817 ft | 501 kts | 133° |
| 2026-05-09 09:05 | 38.74204 | 28.39177 | 29045 ft | 501 kts | 133° |
| 2026-05-09 09:05 | 38.71949 | 28.42590 | 29247 ft | 502 kts | 133° |
| 2026-05-09 09:05 | 38.69719 | 28.45961 | 29498 ft | 502 kts | 133° |
| 2026-05-09 09:06 | 38.67429 | 28.49415 | 29764 ft | 502 kts | 133° |
| 2026-05-09 09:06 | 38.65196 | 28.52772 | 30040 ft | 501 kts | 134° |
| 2026-05-09 09:06 | 38.62935 | 28.56169 | 30290 ft | 501 kts | 133° |
| 2026-05-09 09:06 | 38.60682 | 28.59557 | 30517 ft | 500 kts | 133° |
| 2026-05-09 09:07 | 38.58326 | 28.62803 | 30761 ft | 496 kts | 141° |
| 2026-05-09 09:07 | 38.55676 | 28.65572 | 31004 ft | 490 kts | 149° |
| 2026-05-09 09:07 | 38.52885 | 28.68061 | 31203 ft | 490 kts | 149° |
| 2026-05-09 09:07 | 38.50089 | 28.70555 | 31401 ft | 490 kts | 149° |
| 2026-05-09 09:08 | 38.47297 | 28.73050 | 31580 ft | 490 kts | 149° |
| 2026-05-09 09:08 | 38.44511 | 28.75543 | 31789 ft | 490 kts | 149° |
| 2026-05-09 09:08 | 38.41725 | 28.78039 | 32020 ft | 489 kts | 149° |
| 2026-05-09 09:08 | 38.38938 | 28.80534 | 32250 ft | 488 kts | 149° |
| 2026-05-09 09:09 | 38.36165 | 28.83017 | 32492 ft | 488 kts | 149° |
| 2026-05-09 09:09 | 38.33391 | 28.85498 | 32718 ft | 487 kts | 149° |
| 2026-05-09 09:09 | 38.30609 | 28.87981 | 32946 ft | 486 kts | 149° |
| 2026-05-09 09:09 | 38.27835 | 28.90449 | 33117 ft | 487 kts | 149° |
| 2026-05-09 09:10 | 38.25045 | 28.92923 | 33147 ft | 490 kts | 149° |
| 2026-05-09 09:10 | 38.19408 | 28.97905 | 33143 ft | 496 kts | 149° |
| 2026-05-09 09:11 | 38.13713 | 29.02943 | 33149 ft | 501 kts | 149° |
| 2026-05-09 09:11 | 38.07975 | 29.08022 | 33147 ft | 504 kts | 149° |
| 2026-05-09 09:12 | 38.02204 | 29.13120 | 33150 ft | 507 kts | 149° |
| 2026-05-09 09:12 | 37.96399 | 29.18220 | 33155 ft | 508 kts | 149° |
| 2026-05-09 09:13 | 37.90580 | 29.23337 | 33160 ft | 509 kts | 149° |
| 2026-05-09 09:13 | 37.84755 | 29.28445 | 33159 ft | 510 kts | 149° |
| 2026-05-09 09:14 | 37.78909 | 29.33567 | 33155 ft | 512 kts | 149° |
| 2026-05-09 09:14 | 37.73044 | 29.38695 | 33169 ft | 513 kts | 149° |
| 2026-05-09 09:15 | 37.67176 | 29.43816 | 33139 ft | 514 kts | 149° |
| 2026-05-09 09:15 | 37.61295 | 29.48939 | 33165 ft | 514 kts | 149° |
| 2026-05-09 09:16 | 37.55409 | 29.54052 | 33156 ft | 514 kts | 149° |
| 2026-05-09 09:16 | 37.46601 | 29.61681 | 33166 ft | 515 kts | 149° |
| 2026-05-09 09:17 | 37.40695 | 29.66790 | 33164 ft | 516 kts | 149° |
| 2026-05-09 09:17 | 37.34773 | 29.71897 | 33160 ft | 516 kts | 149° |
| 2026-05-09 09:18 | 37.28861 | 29.76996 | 33162 ft | 515 kts | 149° |
| 2026-05-09 09:18 | 37.22946 | 29.82092 | 33161 ft | 516 kts | 149° |
| 2026-05-09 09:19 | 37.17022 | 29.87186 | 33160 ft | 517 kts | 149° |
| 2026-05-09 09:19 | 37.11090 | 29.92277 | 33150 ft | 516 kts | 149° |
| 2026-05-09 09:20 | 37.05163 | 29.97360 | 33154 ft | 516 kts | 149° |
| 2026-05-09 09:20 | 36.99229 | 30.02434 | 33152 ft | 516 kts | 149° |
| 2026-05-09 09:21 | 36.93304 | 30.07494 | 33143 ft | 516 kts | 149° |
| 2026-05-09 09:21 | 36.87372 | 30.12552 | 33135 ft | 516 kts | 149° |
| 2026-05-09 09:22 | 36.81439 | 30.17599 | 33137 ft | 515 kts | 149° |
| 2026-05-09 09:22 | 36.75505 | 30.22626 | 33138 ft | 516 kts | 149° |
| 2026-05-09 09:23 | 36.69562 | 30.27646 | 33131 ft | 516 kts | 149° |
| 2026-05-09 09:23 | 36.63624 | 30.32663 | 33126 ft | 514 kts | 150° |
| 2026-05-09 09:24 | 36.57691 | 30.37663 | 33120 ft | 516 kts | 149° |
| 2026-05-09 09:24 | 36.51746 | 30.42673 | 33108 ft | 516 kts | 150° |
| 2026-05-09 09:25 | 36.45796 | 30.47675 | 33105 ft | 516 kts | 150° |
| 2026-05-09 09:25 | 36.39843 | 30.52666 | 33098 ft | 516 kts | 150° |
| 2026-05-09 09:26 | 36.33877 | 30.57650 | 33097 ft | 517 kts | 150° |
| 2026-05-09 09:26 | 36.27906 | 30.62623 | 33075 ft | 517 kts | 150° |
| 2026-05-09 09:27 | 36.21991 | 30.67556 | 33094 ft | 517 kts | 150° |
| 2026-05-09 09:27 | 36.16020 | 30.72530 | 33095 ft | 517 kts | 150° |
| 2026-05-09 09:28 | 36.10046 | 30.77491 | 33098 ft | 517 kts | 150° |
| 2026-05-09 09:28 | 36.04047 | 30.82371 | 33096 ft | 515 kts | 155° |
| 2026-05-09 09:29 | 35.97650 | 30.86236 | 33101 ft | 511 kts | 159° |
| 2026-05-09 09:29 | 35.91218 | 30.89995 | 33100 ft | 511 kts | 159° |
| 2026-05-09 09:30 | 35.84787 | 30.93750 | 33099 ft | 512 kts | 159° |
| 2026-05-09 09:30 | 35.78336 | 30.97524 | 33098 ft | 512 kts | 159° |
| 2026-05-09 09:31 | 35.71898 | 31.01282 | 33110 ft | 512 kts | 159° |
| 2026-05-09 09:32 | 35.62239 | 31.06925 | 33102 ft | 512 kts | 159° |
| 2026-05-09 09:32 | 35.55790 | 31.10668 | 33102 ft | 513 kts | 159° |
| 2026-05-09 09:33 | 35.49346 | 31.14404 | 33074 ft | 513 kts | 159° |
| 2026-05-09 09:33 | 35.42887 | 31.18151 | 33104 ft | 513 kts | 159° |
| 2026-05-09 09:34 | 35.36430 | 31.21881 | 33106 ft | 513 kts | 159° |
| 2026-05-09 09:34 | 35.30009 | 31.25584 | 33110 ft | 514 kts | 159° |
| 2026-05-09 09:36 | 35.04116 | 31.40473 | 33117 ft | 515 kts | 160° |
| 2026-05-09 09:37 | 34.97622 | 31.44180 | 33097 ft | 515 kts | 160° |
| 2026-05-09 09:37 | 34.91140 | 31.47877 | 33116 ft | 515 kts | 160° |
| 2026-05-09 09:38 | 34.84732 | 31.51541 | 33114 ft | 503 kts | 160° |
| 2026-05-09 09:38 | 34.78402 | 31.55131 | 33114 ft | 500 kts | 161° |
| 2026-05-09 09:39 | 34.72016 | 31.58357 | 33116 ft | 498 kts | 164° |
| 2026-05-09 09:39 | 34.65546 | 31.61350 | 33117 ft | 498 kts | 164° |
| 2026-05-09 09:40 | 34.59084 | 31.64379 | 33116 ft | 498 kts | 163° |
| 2026-05-09 09:40 | 34.52590 | 31.67518 | 33115 ft | 499 kts | 163° |
| 2026-05-09 09:41 | 34.47232 | 31.70126 | 33121 ft | 499 kts | 163° |
| 2026-05-09 09:41 | 34.39744 | 31.73752 | 33099 ft | 499 kts | 163° |
| 2026-05-09 09:42 | 34.33292 | 31.76857 | 33109 ft | 499 kts | 163° |
| 2026-05-09 09:42 | 34.27879 | 31.79452 | 33113 ft | 499 kts | 163° |
| 2026-05-09 09:43 | 34.21420 | 31.82542 | 33116 ft | 499 kts | 163° |
| 2026-05-09 09:43 | 34.15021 | 31.85606 | 33096 ft | 498 kts | 163° |
| 2026-05-09 09:44 | 34.08577 | 31.88684 | 33118 ft | 498 kts | 163° |
| 2026-05-09 09:44 | 34.02135 | 31.91764 | 33117 ft | 498 kts | 163° |
| 2026-05-09 09:45 | 33.95691 | 31.94841 | 33116 ft | 498 kts | 163° |
| 2026-05-09 09:45 | 33.89250 | 31.97910 | 33116 ft | 497 kts | 163° |
| 2026-05-09 09:46 | 33.82806 | 32.00964 | 33116 ft | 497 kts | 163° |
| 2026-05-09 09:46 | 33.76366 | 32.04004 | 33114 ft | 497 kts | 163° |
| 2026-05-09 09:47 | 33.69924 | 32.07052 | 33111 ft | 497 kts | 163° |
| 2026-05-09 09:47 | 33.63493 | 32.10098 | 33094 ft | 497 kts | 163° |
| 2026-05-09 09:48 | 33.57058 | 32.13134 | 33111 ft | 497 kts | 163° |
| 2026-05-09 09:48 | 33.50626 | 32.16163 | 33117 ft | 497 kts | 163° |
| 2026-05-09 09:49 | 33.44229 | 32.19172 | 33114 ft | 496 kts | 163° |
| 2026-05-09 09:49 | 33.37797 | 32.22196 | 33095 ft | 496 kts | 163° |
| 2026-05-09 09:50 | 33.31367 | 32.25202 | 33106 ft | 496 kts | 163° |
| 2026-05-09 09:50 | 33.24928 | 32.28206 | 33112 ft | 497 kts | 163° |
| 2026-05-09 09:51 | 33.18492 | 32.31221 | 33114 ft | 497 kts | 163° |
| 2026-05-09 09:51 | 33.12056 | 32.34229 | 33118 ft | 497 kts | 163° |
| 2026-05-09 09:52 | 33.05612 | 32.37222 | 33126 ft | 496 kts | 163° |
| 2026-05-09 09:52 | 32.99183 | 32.40209 | 33129 ft | 496 kts | 163° |
| 2026-05-09 09:53 | 32.92755 | 32.43203 | 33139 ft | 496 kts | 163° |
| 2026-05-09 09:53 | 32.86336 | 32.46189 | 33121 ft | 495 kts | 163° |
| 2026-05-09 09:54 | 32.79914 | 32.49155 | 33131 ft | 495 kts | 163° |
| 2026-05-09 09:54 | 32.73494 | 32.52115 | 33132 ft | 494 kts | 163° |
| 2026-05-09 09:55 | 32.67089 | 32.55069 | 33129 ft | 494 kts | 163° |
| 2026-05-09 09:55 | 32.60685 | 32.58022 | 33118 ft | 493 kts | 163° |
| 2026-05-09 09:56 | 32.54290 | 32.60963 | 33127 ft | 492 kts | 163° |
| 2026-05-09 09:56 | 32.47909 | 32.63905 | 33126 ft | 492 kts | 163° |
| 2026-05-09 09:57 | 32.41555 | 32.66818 | 33122 ft | 491 kts | 163° |
| 2026-05-09 09:57 | 32.35175 | 32.69737 | 33103 ft | 491 kts | 164° |
| 2026-05-09 09:58 | 32.28804 | 32.72646 | 33106 ft | 491 kts | 164° |
| 2026-05-09 09:58 | 32.22426 | 32.75553 | 33111 ft | 491 kts | 164° |
| 2026-05-09 09:59 | 32.16039 | 32.78463 | 33112 ft | 491 kts | 164° |
| 2026-05-09 09:59 | 32.09661 | 32.81369 | 33085 ft | 491 kts | 165° |
| 2026-05-09 10:00 | 32.03279 | 32.84271 | 33092 ft | 491 kts | 165° |
| 2026-05-09 10:00 | 31.96905 | 32.87162 | 33097 ft | 491 kts | 165° |
| 2026-05-09 10:01 | 31.90521 | 32.90057 | 33098 ft | 491 kts | 165° |
| 2026-05-09 10:01 | 31.84150 | 32.92941 | 33072 ft | 491 kts | 165° |
| 2026-05-09 10:02 | 31.77776 | 32.95825 | 33082 ft | 490 kts | 165° |
| 2026-05-09 10:02 | 31.71451 | 32.98667 | 33088 ft | 490 kts | 165° |
| 2026-05-09 10:03 | 31.65077 | 33.01531 | 33089 ft | 490 kts | 165° |
| 2026-05-09 10:03 | 31.58708 | 33.04401 | 33090 ft | 490 kts | 165° |
| 2026-05-09 10:04 | 31.52335 | 33.07274 | 33077 ft | 490 kts | 165° |
| 2026-05-09 10:04 | 31.45964 | 33.10132 | 33082 ft | 490 kts | 165° |
| 2026-05-09 10:05 | 31.39600 | 33.12971 | 33088 ft | 490 kts | 165° |
| 2026-05-09 10:05 | 31.33389 | 33.16345 | 33077 ft | 496 kts | 156° |
| 2026-05-09 10:06 | 31.27322 | 33.20197 | 33069 ft | 496 kts | 156° |
| 2026-05-09 10:06 | 31.21245 | 33.24028 | 33072 ft | 496 kts | 157° |
| 2026-05-09 10:07 | 31.15166 | 33.27848 | 33078 ft | 496 kts | 157° |
| 2026-05-09 10:07 | 31.09085 | 33.31673 | 33074 ft | 496 kts | 157° |
| 2026-05-09 10:08 | 31.02999 | 33.35493 | 33072 ft | 497 kts | 157° |
| 2026-05-09 10:08 | 30.96913 | 33.39309 | 33066 ft | 497 kts | 156° |
| 2026-05-09 10:09 | 30.90824 | 33.43125 | 33073 ft | 497 kts | 156° |
| 2026-05-09 10:09 | 30.84740 | 33.46934 | 33074 ft | 497 kts | 156° |
| 2026-05-09 10:10 | 30.78679 | 33.50725 | 33067 ft | 497 kts | 156° |
| 2026-05-09 10:10 | 30.72577 | 33.54527 | 33059 ft | 497 kts | 156° |
| 2026-05-09 10:11 | 30.66481 | 33.58317 | 33077 ft | 496 kts | 156° |
| 2026-05-09 10:11 | 30.60402 | 33.62096 | 33084 ft | 496 kts | 156° |
| 2026-05-09 10:12 | 30.54320 | 33.65871 | 33083 ft | 495 kts | 156° |
| 2026-05-09 10:12 | 30.48231 | 33.69642 | 33072 ft | 495 kts | 156° |
| 2026-05-09 10:13 | 30.42160 | 33.73393 | 33064 ft | 494 kts | 156° |
| 2026-05-09 10:13 | 30.36095 | 33.77141 | 33078 ft | 494 kts | 156° |
| 2026-05-09 10:14 | 30.30035 | 33.80886 | 33076 ft | 493 kts | 156° |
| 2026-05-09 10:14 | 30.24016 | 33.84595 | 33077 ft | 493 kts | 156° |
| 2026-05-09 10:15 | 30.17965 | 33.88323 | 33073 ft | 493 kts | 156° |
| 2026-05-09 10:15 | 30.11910 | 33.92052 | 33059 ft | 493 kts | 156° |
| 2026-05-09 10:16 | 30.05865 | 33.95770 | 33068 ft | 492 kts | 156° |
| 2026-05-09 10:16 | 29.99812 | 33.99471 | 33070 ft | 492 kts | 156° |
| 2026-05-09 10:17 | 29.93759 | 34.03166 | 33065 ft | 492 kts | 156° |
| 2026-05-09 10:17 | 29.87711 | 34.06870 | 33066 ft | 492 kts | 156° |
| 2026-05-09 10:18 | 29.81657 | 34.10568 | 33051 ft | 493 kts | 156° |
| 2026-05-09 10:18 | 29.75595 | 34.14259 | 33055 ft | 493 kts | 156° |
| 2026-05-09 10:19 | 29.69533 | 34.17951 | 33060 ft | 493 kts | 156° |
| 2026-05-09 10:19 | 29.63462 | 34.21645 | 33060 ft | 493 kts | 156° |
| 2026-05-09 10:20 | 29.57562 | 34.25719 | 33036 ft | 497 kts | 149° |
| 2026-05-09 10:20 | 29.51817 | 34.30128 | 33049 ft | 496 kts | 150° |
| 2026-05-09 10:21 | 29.46065 | 34.34527 | 33046 ft | 496 kts | 150° |
| 2026-05-09 10:21 | 29.40319 | 34.38913 | 33049 ft | 496 kts | 150° |
| 2026-05-09 10:22 | 29.34571 | 34.43297 | 33023 ft | 496 kts | 150° |
| 2026-05-09 10:22 | 29.28864 | 34.47648 | 33023 ft | 495 kts | 150° |
| 2026-05-09 10:23 | 29.23128 | 34.52020 | 33010 ft | 494 kts | 150° |
| 2026-05-09 10:23 | 29.17403 | 34.56376 | 32999 ft | 493 kts | 150° |
| 2026-05-09 10:24 | 29.11685 | 34.60701 | 32986 ft | 493 kts | 150° |
| 2026-05-09 10:24 | 29.05692 | 34.64393 | 32976 ft | 484 kts | 166° |
| 2026-05-09 10:25 | 28.99160 | 34.65582 | 32972 ft | 471 kts | 186° |
| 2026-05-09 10:25 | 28.92794 | 34.64418 | 32948 ft | 465 kts | 197° |
| 2026-05-09 10:26 | 28.86485 | 34.62774 | 32954 ft | 465 kts | 196° |
| 2026-05-09 10:26 | 28.81189 | 34.61415 | 32950 ft | 466 kts | 196° |
| 2026-05-09 10:27 | 28.74866 | 34.59794 | 32942 ft | 466 kts | 196° |
| 2026-05-09 10:27 | 28.68580 | 34.58170 | 32949 ft | 465 kts | 196° |
| 2026-05-09 10:28 | 28.62259 | 34.56540 | 32959 ft | 466 kts | 196° |
| 2026-05-09 10:28 | 28.55939 | 34.54913 | 32955 ft | 465 kts | 196° |
| 2026-05-09 10:29 | 28.49626 | 34.53294 | 32952 ft | 465 kts | 196° |
| 2026-05-09 10:29 | 28.43305 | 34.51753 | 32956 ft | 465 kts | 195° |
| 2026-05-09 10:30 | 28.36970 | 34.50258 | 32946 ft | 465 kts | 195° |
| 2026-05-09 10:30 | 28.30636 | 34.48754 | 32946 ft | 465 kts | 195° |
| 2026-05-09 10:31 | 28.24304 | 34.47230 | 32932 ft | 464 kts | 195° |
| 2026-05-09 10:31 | 28.17984 | 34.45706 | 32928 ft | 464 kts | 195° |
| 2026-05-09 10:32 | 28.11693 | 34.44200 | 32941 ft | 464 kts | 195° |
| 2026-05-09 10:32 | 28.05263 | 34.43056 | 32933 ft | 469 kts | 183° |
| 2026-05-09 10:33 | 27.98847 | 34.44387 | 32936 ft | 480 kts | 161° |
| 2026-05-09 10:33 | 27.95856 | 34.46116 | 32938 ft | 485 kts | 150° |
| 2026-05-09 10:33 | 27.93148 | 34.48418 | 32943 ft | 490 kts | 141° |
| 2026-05-09 10:34 | 27.88172 | 34.53710 | 32931 ft | 491 kts | 140° |
| 2026-05-09 10:34 | 27.80714 | 34.61647 | 32936 ft | 491 kts | 140° |
| 2026-05-09 10:35 | 27.75729 | 34.66938 | 32904 ft | 491 kts | 140° |
| 2026-05-09 10:35 | 27.70758 | 34.72223 | 32915 ft | 491 kts | 140° |
| 2026-05-09 10:36 | 27.65778 | 34.77497 | 32924 ft | 490 kts | 140° |
| 2026-05-09 10:36 | 27.60808 | 34.82748 | 32924 ft | 490 kts | 140° |
| 2026-05-09 10:37 | 27.55834 | 34.87994 | 32923 ft | 490 kts | 140° |
| 2026-05-09 10:37 | 27.50858 | 34.93242 | 32922 ft | 490 kts | 139° |
| 2026-05-09 10:38 | 27.46102 | 34.98680 | 32920 ft | 491 kts | 136° |
| 2026-05-09 10:38 | 27.41486 | 35.04354 | 32923 ft | 491 kts | 135° |
| 2026-05-09 10:39 | 27.36861 | 35.09995 | 32908 ft | 490 kts | 136° |
| 2026-05-09 10:39 | 27.32174 | 35.15558 | 32919 ft | 489 kts | 136° |
| 2026-05-09 10:40 | 27.27469 | 35.21086 | 32921 ft | 489 kts | 137° |
| 2026-05-09 10:40 | 27.22766 | 35.26624 | 32925 ft | 489 kts | 136° |
| 2026-05-09 10:41 | 27.18083 | 35.32167 | 32924 ft | 489 kts | 136° |
| 2026-05-09 10:41 | 27.13398 | 35.37706 | 32922 ft | 489 kts | 136° |
| 2026-05-09 10:42 | 27.08705 | 35.43240 | 32918 ft | 489 kts | 136° |
| 2026-05-09 10:42 | 27.04034 | 35.48732 | 32918 ft | 489 kts | 137° |
| 2026-05-09 10:43 | 26.99337 | 35.54241 | 32902 ft | 489 kts | 137° |
| 2026-05-09 10:43 | 26.94628 | 35.59760 | 32908 ft | 489 kts | 137° |
| 2026-05-09 10:44 | 26.89933 | 35.65270 | 32910 ft | 489 kts | 137° |
| 2026-05-09 10:44 | 26.85241 | 35.70772 | 32907 ft | 489 kts | 137° |
| 2026-05-09 10:46 | 26.73491 | 35.84491 | 32907 ft | 489 kts | 137° |
| 2026-05-09 10:46 | 26.68798 | 35.89963 | 32908 ft | 489 kts | 137° |
| 2026-05-09 10:47 | 26.64090 | 35.95445 | 32902 ft | 489 kts | 137° |
| 2026-05-09 10:47 | 26.59385 | 36.00912 | 32907 ft | 489 kts | 137° |
| 2026-05-09 10:48 | 26.54660 | 36.06402 | 32909 ft | 489 kts | 137° |
| 2026-05-09 10:48 | 26.49949 | 36.11868 | 32906 ft | 489 kts | 137° |
| 2026-05-09 10:49 | 26.45249 | 36.17309 | 32911 ft | 489 kts | 137° |
| 2026-05-09 10:49 | 26.40541 | 36.22753 | 32911 ft | 488 kts | 137° |
| 2026-05-09 10:50 | 26.35800 | 36.28228 | 32902 ft | 488 kts | 137° |
| 2026-05-09 10:50 | 26.31093 | 36.33663 | 32897 ft | 488 kts | 137° |
| 2026-05-09 10:51 | 26.26375 | 36.39102 | 32885 ft | 487 kts | 137° |
| 2026-05-09 10:51 | 26.21679 | 36.44508 | 32891 ft | 487 kts | 137° |
| 2026-05-09 10:52 | 26.17286 | 36.50239 | 32887 ft | 492 kts | 125° |
| 2026-05-09 10:52 | 26.13945 | 36.56892 | 32878 ft | 493 kts | 121° |
| 2026-05-09 10:53 | 26.10631 | 36.63633 | 32883 ft | 493 kts | 121° |
| 2026-05-09 10:53 | 26.07349 | 36.70316 | 32877 ft | 493 kts | 121° |
| 2026-05-09 10:54 | 26.04065 | 36.76972 | 32870 ft | 493 kts | 121° |
| 2026-05-09 10:54 | 26.00738 | 36.83678 | 32882 ft | 494 kts | 121° |
| 2026-05-09 10:55 | 25.97425 | 36.90360 | 32903 ft | 494 kts | 121° |
| 2026-05-09 10:55 | 25.94122 | 36.97016 | 32906 ft | 494 kts | 121° |
| 2026-05-09 10:56 | 25.90814 | 37.03669 | 32909 ft | 494 kts | 121° |
| 2026-05-09 10:56 | 25.87487 | 37.10351 | 32912 ft | 493 kts | 121° |
| 2026-05-09 10:57 | 25.84172 | 37.17011 | 32912 ft | 493 kts | 121° |
| 2026-05-09 10:57 | 25.80524 | 37.23405 | 32909 ft | 488 kts | 133° |
| 2026-05-09 10:58 | 25.75453 | 37.28337 | 32898 ft | 481 kts | 148° |
| 2026-05-09 10:58 | 25.69946 | 37.32485 | 32904 ft | 480 kts | 148° |
| 2026-05-09 10:59 | 25.64428 | 37.36649 | 32913 ft | 480 kts | 148° |
| 2026-05-09 10:59 | 25.58916 | 37.40801 | 32919 ft | 480 kts | 148° |
| 2026-05-09 11:00 | 25.53385 | 37.44962 | 32921 ft | 480 kts | 148° |
| 2026-05-09 11:00 | 25.47846 | 37.49134 | 32921 ft | 480 kts | 148° |
| 2026-05-09 11:01 | 25.42340 | 37.53278 | 32916 ft | 479 kts | 148° |
| 2026-05-09 11:01 | 25.36811 | 37.57428 | 32919 ft | 479 kts | 148° |
| 2026-05-09 11:02 | 25.31305 | 37.61546 | 32919 ft | 478 kts | 148° |
| 2026-05-09 11:02 | 25.25803 | 37.65669 | 32912 ft | 478 kts | 148° |
| 2026-05-09 11:03 | 25.20322 | 37.69777 | 32909 ft | 478 kts | 148° |
| 2026-05-09 11:03 | 25.14807 | 37.73900 | 32900 ft | 477 kts | 148° |
| 2026-05-09 11:04 | 25.09309 | 37.78020 | 32898 ft | 477 kts | 148° |
| 2026-05-09 11:04 | 25.03847 | 37.82104 | 32888 ft | 477 kts | 148° |
| 2026-05-09 11:05 | 24.98339 | 37.86209 | 32886 ft | 477 kts | 148° |
| 2026-05-09 11:05 | 24.92840 | 37.90312 | 32879 ft | 477 kts | 148° |
| 2026-05-09 11:06 | 24.87360 | 37.94390 | 32875 ft | 477 kts | 148° |
| 2026-05-09 11:06 | 24.81836 | 37.98504 | 32876 ft | 477 kts | 148° |
| 2026-05-09 11:07 | 24.76334 | 38.02600 | 32853 ft | 478 kts | 148° |
| 2026-05-09 11:07 | 24.70833 | 38.06684 | 32856 ft | 479 kts | 148° |
| 2026-05-09 11:08 | 24.65332 | 38.10762 | 32851 ft | 479 kts | 148° |
| 2026-05-09 11:08 | 24.59815 | 38.14843 | 32854 ft | 479 kts | 148° |
| 2026-05-09 11:09 | 24.54255 | 38.18958 | 32843 ft | 479 kts | 148° |
| 2026-05-09 11:09 | 24.48744 | 38.23036 | 32837 ft | 480 kts | 148° |
| 2026-05-09 11:10 | 24.43217 | 38.27117 | 32819 ft | 480 kts | 148° |
| 2026-05-09 11:10 | 24.37658 | 38.31214 | 32827 ft | 481 kts | 148° |
| 2026-05-09 11:11 | 24.32129 | 38.35285 | 32829 ft | 481 kts | 149° |
| 2026-05-09 11:11 | 24.26555 | 38.39382 | 32842 ft | 481 kts | 148° |
| 2026-05-09 11:12 | 24.21004 | 38.43462 | 32844 ft | 481 kts | 148° |
| 2026-05-09 11:12 | 24.15440 | 38.47545 | 32883 ft | 481 kts | 149° |
| 2026-05-09 11:13 | 24.09892 | 38.51604 | 32889 ft | 481 kts | 149° |
| 2026-05-09 11:13 | 24.04359 | 38.55659 | 32886 ft | 481 kts | 149° |
| 2026-05-09 11:14 | 23.98800 | 38.59729 | 32889 ft | 481 kts | 149° |
| 2026-05-09 11:14 | 23.93230 | 38.63793 | 32890 ft | 481 kts | 149° |
| 2026-05-09 11:15 | 23.87664 | 38.67853 | 32894 ft | 481 kts | 149° |
| 2026-05-09 11:15 | 23.82106 | 38.71902 | 32889 ft | 480 kts | 149° |
| 2026-05-09 11:16 | 23.76531 | 38.75962 | 32903 ft | 480 kts | 149° |
| 2026-05-09 11:16 | 23.70633 | 38.79248 | 32903 ft | 473 kts | 165° |
| 2026-05-09 11:17 | 23.64339 | 38.81359 | 32904 ft | 473 kts | 166° |
| 2026-05-09 11:17 | 23.58038 | 38.83469 | 32905 ft | 473 kts | 166° |
| 2026-05-09 11:18 | 23.51746 | 38.85576 | 32898 ft | 473 kts | 166° |
| 2026-05-09 11:18 | 23.46525 | 38.87328 | 32903 ft | 473 kts | 166° |
| 2026-05-09 11:19 | 23.39209 | 38.89771 | 32893 ft | 472 kts | 166° |
| 2026-05-09 11:19 | 23.32931 | 38.91865 | 32686 ft | 470 kts | 166° |
| 2026-05-09 11:19 | 23.30836 | 38.92567 | 32460 ft | 463 kts | 166° |
| 2026-05-09 11:20 | 23.27773 | 38.93591 | 32122 ft | 458 kts | 166° |
| 2026-05-09 11:20 | 23.24730 | 38.94607 | 31797 ft | 457 kts | 166° |
| 2026-05-09 11:20 | 23.21720 | 38.95609 | 31463 ft | 458 kts | 166° |
| 2026-05-09 11:20 | 23.18632 | 38.96635 | 31159 ft | 459 kts | 166° |
| 2026-05-09 11:21 | 23.15618 | 38.97635 | 30856 ft | 460 kts | 165° |
| 2026-05-09 11:21 | 23.12549 | 38.98654 | 30549 ft | 462 kts | 165° |
| 2026-05-09 11:21 | 23.09478 | 38.99676 | 30246 ft | 463 kts | 166° |
| 2026-05-09 11:21 | 23.06392 | 39.00701 | 29941 ft | 464 kts | 166° |
| 2026-05-09 11:22 | 23.03298 | 39.01726 | 29587 ft | 466 kts | 165° |
| 2026-05-09 11:22 | 23.00195 | 39.02756 | 29234 ft | 468 kts | 165° |
| 2026-05-09 11:22 | 22.97068 | 39.03797 | 28884 ft | 470 kts | 165° |
| 2026-05-09 11:22 | 22.93933 | 39.04839 | 28538 ft | 470 kts | 165° |
| 2026-05-09 11:23 | 22.90808 | 39.05875 | 28208 ft | 469 kts | 164° |
| 2026-05-09 11:23 | 22.87696 | 39.06908 | 27862 ft | 467 kts | 165° |
| 2026-05-09 11:23 | 22.84597 | 39.07936 | 27526 ft | 465 kts | 164° |
| 2026-05-09 11:23 | 22.81509 | 39.08954 | 27202 ft | 462 kts | 166° |
| 2026-05-09 11:24 | 22.78373 | 39.09643 | 26874 ft | 458 kts | 175° |
| 2026-05-09 11:24 | 22.75215 | 39.09829 | 26557 ft | 454 kts | 181° |
| 2026-05-09 11:24 | 22.72066 | 39.09904 | 26247 ft | 451 kts | 181° |
| 2026-05-09 11:24 | 22.68930 | 39.09984 | 25935 ft | 450 kts | 179° |
| 2026-05-09 11:25 | 22.65802 | 39.10079 | 25623 ft | 448 kts | 179° |
| 2026-05-09 11:25 | 22.62682 | 39.10184 | 25314 ft | 447 kts | 179° |
| 2026-05-09 11:25 | 22.59586 | 39.10293 | 25013 ft | 445 kts | 180° |
| 2026-05-09 11:25 | 22.56521 | 39.10402 | 24705 ft | 434 kts | 179° |
| 2026-05-09 11:26 | 22.53538 | 39.10506 | 24407 ft | 423 kts | 180° |
| 2026-05-09 11:26 | 22.50637 | 39.10602 | 24114 ft | 413 kts | 180° |
| 2026-05-09 11:26 | 22.47831 | 39.10655 | 23825 ft | 404 kts | 180° |
| 2026-05-09 11:26 | 22.45054 | 39.10669 | 23534 ft | 396 kts | 181° |
| 2026-05-09 11:27 | 22.42325 | 39.10664 | 23218 ft | 388 kts | 181° |
| 2026-05-09 11:27 | 22.39654 | 39.10654 | 22874 ft | 381 kts | 181° |
| 2026-05-09 11:27 | 22.37023 | 39.10650 | 22542 ft | 375 kts | 180° |
| 2026-05-09 11:27 | 22.34441 | 39.10653 | 22210 ft | 368 kts | 181° |
| 2026-05-09 11:28 | 22.31895 | 39.10662 | 21882 ft | 363 kts | 180° |
| 2026-05-09 11:28 | 22.29390 | 39.10677 | 21558 ft | 357 kts | 180° |
| 2026-05-09 11:28 | 22.26918 | 39.10696 | 21230 ft | 352 kts | 180° |
| 2026-05-09 11:28 | 22.24475 | 39.10714 | 20920 ft | 349 kts | 180° |
| 2026-05-09 11:29 | 22.22049 | 39.10728 | 20600 ft | 348 kts | 180° |
| 2026-05-09 11:29 | 22.19639 | 39.10740 | 20288 ft | 345 kts | 180° |
| 2026-05-09 11:29 | 22.17237 | 39.10750 | 19979 ft | 344 kts | 180° |
| 2026-05-09 11:29 | 22.14846 | 39.10762 | 19673 ft | 343 kts | 180° |
| 2026-05-09 11:30 | 22.12463 | 39.10775 | 19372 ft | 341 kts | 180° |
| 2026-05-09 11:30 | 22.10110 | 39.10663 | 19067 ft | 338 kts | 188° |
| 2026-05-09 11:30 | 22.07819 | 39.10097 | 18778 ft | 337 kts | 199° |
| 2026-05-09 11:30 | 22.05619 | 39.09233 | 18477 ft | 335 kts | 200° |
| 2026-05-09 11:31 | 22.03437 | 39.08373 | 18192 ft | 334 kts | 200° |
| 2026-05-09 11:31 | 22.01255 | 39.07517 | 17869 ft | 333 kts | 200° |
| 2026-05-09 11:31 | 21.99080 | 39.06666 | 17540 ft | 331 kts | 200° |
| 2026-05-09 11:31 | 21.96926 | 39.05822 | 17201 ft | 328 kts | 200° |
| 2026-05-09 11:32 | 21.94792 | 39.04986 | 16873 ft | 325 kts | 200° |
| 2026-05-09 11:32 | 21.92678 | 39.04159 | 16550 ft | 322 kts | 200° |
| 2026-05-09 11:32 | 21.90583 | 39.03337 | 16231 ft | 318 kts | 200° |
| 2026-05-09 11:32 | 21.88534 | 39.02536 | 15920 ft | 316 kts | 200° |
| 2026-05-09 11:33 | 21.86451 | 39.01726 | 15597 ft | 314 kts | 200° |
| 2026-05-09 11:33 | 21.84429 | 39.00939 | 15293 ft | 312 kts | 200° |
| 2026-05-09 11:33 | 21.80387 | 38.99362 | 14683 ft | 306 kts | 200° |
| 2026-05-09 11:34 | 21.78339 | 38.98811 | 14393 ft | 304 kts | 186° |
| 2026-05-09 11:34 | 21.76241 | 38.98941 | 14093 ft | 303 kts | 169° |
| 2026-05-09 11:34 | 21.74243 | 38.99655 | 13799 ft | 302 kts | 162° |
| 2026-05-09 11:34 | 21.72281 | 39.00442 | 13492 ft | 300 kts | 162° |
| 2026-05-09 11:35 | 21.70335 | 39.01221 | 13159 ft | 297 kts | 162° |
| 2026-05-09 11:35 | 21.68406 | 39.01994 | 12836 ft | 295 kts | 162° |
| 2026-05-09 11:35 | 21.66486 | 39.02764 | 12511 ft | 293 kts | 162° |
| 2026-05-09 11:35 | 21.64584 | 39.03521 | 12190 ft | 291 kts | 162° |
| 2026-05-09 11:36 | 21.62687 | 39.04268 | 11874 ft | 289 kts | 162° |
| 2026-05-09 11:36 | 21.60803 | 39.05006 | 11561 ft | 287 kts | 162° |
| 2026-05-09 11:36 | 21.58931 | 39.05737 | 11246 ft | 285 kts | 162° |
| 2026-05-09 11:36 | 21.57070 | 39.06462 | 10942 ft | 283 kts | 162° |
| 2026-05-09 11:37 | 21.55226 | 39.07181 | 10637 ft | 281 kts | 161° |
| 2026-05-09 11:37 | 21.53395 | 39.07896 | 10335 ft | 279 kts | 161° |
| 2026-05-09 11:37 | 21.51578 | 39.08607 | 10038 ft | 277 kts | 161° |
| 2026-05-09 11:37 | 21.49780 | 39.09314 | 9738 ft | 275 kts | 160° |
| 2026-05-09 11:38 | 21.47993 | 39.10023 | 9416 ft | 272 kts | 160° |
| 2026-05-09 11:38 | 21.46225 | 39.10724 | 9094 ft | 270 kts | 160° |
| 2026-05-09 11:38 | 21.44469 | 39.11419 | 8778 ft | 268 kts | 160° |
| 2026-05-09 11:38 | 21.42726 | 39.12111 | 8466 ft | 265 kts | 160° |
| 2026-05-09 11:39 | 21.41023 | 39.12788 | 8144 ft | 262 kts | 159° |
| 2026-05-09 11:39 | 21.39322 | 39.13464 | 7829 ft | 259 kts | 159° |
| 2026-05-09 11:39 | 21.37640 | 39.14131 | 7528 ft | 256 kts | 159° |
| 2026-05-09 11:40 | 21.34595 | 39.15907 | 6919 ft | 250 kts | 124° |
| 2026-05-09 11:40 | 21.34045 | 39.17638 | 6624 ft | 248 kts | 90° |
| 2026-05-09 11:40 | 21.34448 | 39.19416 | 6328 ft | 246 kts | 70° |
| 2026-05-09 11:40 | 21.35067 | 39.21119 | 6020 ft | 244 kts | 70° |
| 2026-05-09 11:41 | 21.35689 | 39.22800 | 5763 ft | 240 kts | 62° |
| 2026-05-09 11:41 | 21.36744 | 39.24117 | 5678 ft | 229 kts | 35° |
| 2026-05-09 11:41 | 21.38161 | 39.24777 | 5542 ft | 220 kts | 9° |
| 2026-05-09 11:41 | 21.39667 | 39.24730 | 5335 ft | 217 kts | 343° |
| 2026-05-09 11:42 | 21.41088 | 39.24194 | 5082 ft | 216 kts | 339° |
| 2026-05-09 11:42 | 21.42481 | 39.23642 | 4855 ft | 211 kts | 339° |
| 2026-05-09 11:42 | 21.43843 | 39.23105 | 4577 ft | 206 kts | 339° |
| 2026-05-09 11:42 | 21.45173 | 39.22581 | 4292 ft | 201 kts | 339° |
| 2026-05-09 11:43 | 21.46470 | 39.22071 | 4039 ft | 196 kts | 339° |
| 2026-05-09 11:43 | 21.47736 | 39.21573 | 3796 ft | 191 kts | 339° |
| 2026-05-09 11:43 | 21.48969 | 39.21088 | 3570 ft | 187 kts | 339° |
| 2026-05-09 11:43 | 21.50175 | 39.20613 | 3334 ft | 182 kts | 339° |
| 2026-05-09 11:44 | 21.51338 | 39.20155 | 3108 ft | 178 kts | 339° |
| 2026-05-09 11:44 | 21.52489 | 39.19702 | 2887 ft | 174 kts | 339° |
| 2026-05-09 11:44 | 21.53614 | 39.19259 | 2675 ft | 169 kts | 340° |
| 2026-05-09 11:44 | 21.54686 | 39.18837 | 2467 ft | 160 kts | 340° |
| 2026-05-09 11:45 | 21.55701 | 39.18437 | 2272 ft | 152 kts | 340° |
| 2026-05-09 11:45 | 21.56668 | 39.18056 | 2093 ft | 144 kts | 340° |
| 2026-05-09 11:45 | 21.57595 | 39.17691 | 1909 ft | 141 kts | 338° |
| 2026-05-09 11:45 | 21.58503 | 39.17333 | 1735 ft | 136 kts | 337° |
| 2026-05-09 11:46 | 21.59415 | 39.16974 | 1569 ft | 140 kts | 338° |
| 2026-05-09 11:46 | 21.60312 | 39.16620 | 1377 ft | 138 kts | 339° |
| 2026-05-09 11:46 | 21.61202 | 39.16269 | 1204 ft | 138 kts | 338° |
| 2026-05-09 11:46 | 21.62114 | 39.15909 | 1032 ft | 140 kts | 338° |
| 2026-05-09 11:47 | 21.63005 | 39.15558 | 878 ft | 134 kts | 336° |
| 2026-05-09 11:47 | 21.63893 | 39.15208 | 713 ft | 135 kts | 335° |
| 2026-05-09 11:47 | 21.64784 | 39.14857 | 539 ft | 136 kts | 333° |
| 2026-05-09 11:47 | 21.65661 | 39.14511 | 365 ft | 132 kts | 335° |
| 2026-05-09 11:48 | 21.66538 | 39.14165 | 181 ft | 137 kts | 336° |
| 2026-05-09 11:48 | 21.67415 | 39.13819 | 43 ft | 131 kts | 333° |
| 2026-05-09 11:48 | 21.68152 | 39.13521 | 30 ft | 90 kts | 340° |
| 2026-05-09 11:48 | 21.68593 | 39.13348 | 29 ft | 51 kts | 341° |
| 2026-05-09 11:49 | 21.68863 | 39.13245 | 28 ft | 37 kts | 340° |
| 2026-05-09 11:49 | 21.69063 | 39.13185 | 27 ft | 27 kts | 1° |
| 2026-05-09 11:49 | 21.69213 | 39.13209 | 26 ft | 12 kts | 11° |
| 2026-05-09 11:49 | 21.69290 | 39.13239 | 26 ft | 14 kts | 52° |
| 2026-05-09 11:50 | 21.69244 | 39.13311 | 26 ft | 13 kts | 159° |
| 2026-05-09 11:50 | 21.69160 | 39.13345 | 27 ft | 15 kts | 160° |
| 2026-05-09 11:50 | 21.69022 | 39.13400 | 27 ft | 26 kts | 159° |
| 2026-05-09 11:50 | 21.68858 | 39.13466 | 28 ft | 26 kts | 160° |
| 2026-05-09 11:51 | 21.68691 | 39.13531 | 28 ft | 26 kts | 160° |
| 2026-05-09 11:51 | 21.68521 | 39.13594 | 29 ft | 26 kts | 161° |
| 2026-05-09 11:51 | 21.68348 | 39.13656 | 30 ft | 26 kts | 160° |
| 2026-05-09 11:51 | 21.68227 | 39.13741 | 31 ft | 16 kts | 111° |
| 2026-05-09 11:52 | 21.68253 | 39.13854 | 31 ft | 17 kts | 70° |
| 2026-05-09 11:52 | 21.68306 | 39.14005 | 30 ft | 23 kts | 69° |
| 2026-05-09 11:52 | 21.68359 | 39.14159 | 29 ft | 21 kts | 70° |
| 2026-05-09 11:52 | 21.68406 | 39.14304 | 28 ft | 20 kts | 71° |
| 2026-05-09 11:53 | 21.68451 | 39.14440 | 28 ft | 19 kts | 70° |
| 2026-05-09 11:53 | 21.68496 | 39.14569 | 27 ft | 18 kts | 69° |
| 2026-05-09 11:53 | 21.68544 | 39.14704 | 28 ft | 19 kts | 69° |
| 2026-05-09 11:53 | 21.68590 | 39.14836 | 29 ft | 18 kts | 69° |
| 2026-05-09 11:54 | 21.68634 | 39.14957 | 27 ft | 16 kts | 62° |
| 2026-05-09 11:54 | 21.68730 | 39.14976 | 25 ft | 16 kts | 338° |
| 2026-05-09 11:54 | 21.68850 | 39.14928 | 24 ft | 19 kts | 339° |
| 2026-05-09 11:54 | 21.68982 | 39.14875 | 23 ft | 21 kts | 340° |
| 2026-05-09 11:55 | 21.69125 | 39.14818 | 23 ft | 23 kts | 340° |
| 2026-05-09 11:56 | 21.69852 | 39.14531 | 22 ft | 15 kts | 340° |
| 2026-05-09 11:56 | 21.69928 | 39.14499 | 22 ft | 9 kts | 314° |
| 2026-05-09 11:56 | 21.69917 | 39.14431 | 22 ft | 10 kts | 256° |
| 2026-05-09 11:57 | 21.69908 | 39.14391 | 24 ft | 2 kts | 254° |
| 2026-05-09 11:57 | 21.69906 | 39.14386 | 23 ft | 0 kts | 253° |